Terminal Aerodrome Forecast
Issued by NWS Lake Charles, LA

Home | Current Version | Previous Version | Text Only | Print | Product List | Glossary On
Versions: 1 2 3 4 5 6 7 8 9 10 11 12 13 14 15 16 17 18 19 20 21 22 23 24
000
FTUS44 KLCH 280520
TAFLFT
TAF
KLFT 280520Z 2806/2906 03008KT P6SM BKN005 BKN015 BKN035
     FM280900 03005KT P6SM VCSH BKN009 BKN015 BKN045
     FM281400 02008KT P6SM BKN005 OVC015
     FM282200 36015G20KT P6SM SCT005 OVC015=

USA.gov is the U.S. government's official web portal to all federal, state and local government web resources and services.